Time;durP1;ratioP1;P1;durP2;ratioP2;P2;SDS_P1;SDS_P2;PMS_P1;PMS_P2;Temp;Humidity;BMP_temperature;BMP_pressure;BME280_temperature;BME280_humidity;BME280_pressure;Samples;Min_cycle;Max_cycle;Signal;HPM_P1;HPM_P2
2022/05/30 00:00:39;;;;;;;7.80;2.08;;;;;;;;;;5030842;28;20489;-50
2022/05/30 00:03:05;;;;;;;10.90;2.47;;;;;;;;;;5013411;28;20035;-50
2022/05/30 00:05:31;;;;;;;7.80;2.22;;;;;;;;;;5031491;28;20535;-54
2022/05/30 00:07:57;;;;;;;5.35;1.98;;;;;;;;;;5030560;28;20120;-54
2022/05/30 00:10:23;;;;;;;8.15;1.88;;;;;;;;;;5030589;28;20037;-55
2022/05/30 00:12:49;;;;;;;6.05;2.17;;;;;;;;;;5013429;28;20045;-55
2022/05/30 00:15:18;;;;;;;7.78;1.90;;;;;;;;;;5028985;28;20044;-54
2022/05/30 00:17:44;;;;;;;9.75;2.08;;;;;;;;;;5030273;28;20091;-55
2022/05/30 00:20:10;;;;;;;6.65;1.95;;;;;;;;;;5030880;28;20033;-58
2022/05/30 00:22:36;;;;;;;6.38;1.83;;;;;;;;;;5030155;28;20032;-55
2022/05/30 00:25:02;;;;;;;7.10;1.80;;;;;;;;;;5032017;28;20378;-56
2022/05/30 00:27:27;;;;;;;7.57;1.83;;;;;;;;;;5030017;28;20083;-54
2022/05/30 00:29:53;;;;;;;10.00;1.88;;;;;;;;;;5030619;28;20103;-55
2022/05/30 00:32:18;;;;;;;7.70;1.83;;;;;;;;;;5030684;28;20028;-55
2022/05/30 00:34:44;;;;;;;11.10;2.15;;;;;;;;;;5030851;28;20482;-53
2022/05/30 00:37:09;;;;;;;5.63;1.80;;;;;;;;;;5030423;28;20041;-56
2022/05/30 00:39:34;;;;;;;5.88;1.75;;;;;;;;;;5030001;28;20355;-53
2022/05/30 00:42:18;;;;;;;9.45;2.28;;;;;;;;;;4996116;28;20030;-54
2022/05/30 00:44:46;;;;;;;9.63;2.10;;;;;;;;;;5014658;28;20037;-54
2022/05/30 00:47:12;;;;;;;7.18;2.30;;;;;;;;;;5031202;28;20095;-59
2022/05/30 00:49:39;;;;;;;8.75;2.15;;;;;;;;;;5030412;28;20968;-55
2022/05/30 00:52:07;;;;;;;7.07;2.15;;;;;;;;;;5030536;28;20080;-56
2022/05/30 00:54:42;;;;;;;7.03;1.80;;;;;;;;;;5028888;28;20128;-54
2022/05/30 00:57:20;;;;;;;13.35;3.20;;;;;;;;;;5029020;28;20033;-53
2022/05/30 00:59:58;;;;;;;6.10;2.10;;;;;;;;;;5026746;28;20034;-56
2022/05/30 01:02:30;;;;;;;8.82;2.38;;;;;;;;;;5028320;28;20462;-55
2022/05/30 01:07:41;;;;;;;9.07;2.45;;;;;;;;;;5019622;28;20049;-55
2022/05/30 01:10:10;;;;;;;7.88;2.33;;;;;;;;;;5030433;28;20488;-56
2022/05/30 01:12:45;;;;;;;10.18;2.30;;;;;;;;;;5029943;28;20039;-56
2022/05/30 01:15:14;;;;;;;7.30;2.17;;;;;;;;;;5030748;28;20116;-56
2022/05/30 01:18:06;;;;;;;8.50;2.08;;;;;;;;;;5030267;28;20065;-56
2022/05/30 01:20:52;;;;;;;10.80;2.35;;;;;;;;;;5018754;28;20049;-54
2022/05/30 01:23:46;;;;;;;9.40;2.42;;;;;;;;;;4997202;28;20147;-55
2022/05/30 01:26:49;;;;;;;7.13;2.67;;;;;;;;;;5033366;28;20025;-54
2022/05/30 01:29:20;;;;;;;9.02;2.70;;;;;;;;;;5032618;28;20053;-56
2022/05/30 01:31:45;;;;;;;;;;;;;;;;;;5030027;28;20030;-53
2022/05/30 01:34:11;;;;;;;7.25;2.00;;;;;;;;;;5023921;28;19988;-51
2022/05/30 01:36:36;;;;;;;10.30;2.33;;;;;;;;;;5032783;28;20087;-55
2022/05/30 01:39:03;;;;;;;11.48;2.30;;;;;;;;;;5016545;28;20045;-55
2022/05/30 01:41:29;;;;;;;8.27;2.17;;;;;;;;;;5031342;28;20112;-52
2022/05/30 01:43:54;;;;;;;7.90;2.25;;;;;;;;;;5035461;28;20136;-54
2022/05/30 01:46:22;;;;;;;6.85;2.42;;;;;;;;;;5033413;28;20037;-51
2022/05/30 01:48:50;;;;;;;10.05;2.60;;;;;;;;;;5035246;28;20120;-53
2022/05/30 01:51:18;;;;;;;8.25;2.58;;;;;;;;;;5048443;28;20505;-56
2022/05/30 01:53:44;;;;;;;8.43;2.40;;;;;;;;;;5034832;28;20498;-54
2022/05/30 01:56:09;;;;;;;8.45;2.83;;;;;;;;;;5033551;28;20056;-58
2022/05/30 01:58:35;;;;;;;8.20;2.50;;;;;;;;;;5033997;28;20080;-53
2022/05/30 02:01:24;;;;;;;8.27;2.50;;;;;;;;;;5030546;28;20518;-52
2022/05/30 02:03:51;;;;;;;7.07;2.30;;;;;;;;;;5031842;28;20029;-53
2022/05/30 02:06:19;;;;;;;10.30;2.40;;;;;;;;;;5029999;28;20061;-59
2022/05/30 02:08:47;;;;;;;7.45;3.30;;;;;;;;;;5015066;28;20108;-55
2022/05/30 02:11:12;;;;;;;7.45;2.63;;;;;;;;;;5013682;28;20033;-56
2022/05/30 02:13:38;;;;;;;7.47;3.28;;;;;;;;;;5015739;28;20107;-55
2022/05/30 02:18:49;;;;;;;9.95;3.13;;;;;;;;;;5033869;28;20083;-55
2022/05/30 02:21:15;;;;;;;10.18;2.35;;;;;;;;;;5034733;28;20033;-55
2022/05/30 02:23:40;;;;;;;8.27;2.75;;;;;;;;;;5031081;28;20037;-54
2022/05/30 02:26:05;;;;;;;12.70;2.67;;;;;;;;;;5034791;28;20061;-55
2022/05/30 02:28:31;;;;;;;6.45;2.70;;;;;;;;;;5032296;28;20037;-53
2022/05/30 02:30:57;;;;;;;10.00;2.80;;;;;;;;;;5015534;28;20021;-55
2022/05/30 02:38:50;;;;;;;7.80;2.60;;;;;;;;;;5015496;28;20060;-55
2022/05/30 02:41:18;;;;;;;12.52;3.05;;;;;;;;;;5016677;28;20061;-55
2022/05/30 02:43:43;;;;;;;9.23;3.22;;;;;;;;;;5033291;28;20124;-55
2022/05/30 02:46:09;;;;;;;10.57;2.58;;;;;;;;;;5034251;28;20120;-51
2022/05/30 02:48:34;;;;;;;15.35;3.20;;;;;;;;;;5032968;28;20025;-56
2022/05/30 02:51:00;;;;;;;12.93;3.33;;;;;;;;;;5033415;28;20118;-53
2022/05/30 02:53:25;;;;;;;11.02;2.88;;;;;;;;;;5015636;28;20045;-54
2022/05/30 02:55:51;;;;;;;9.77;2.80;;;;;;;;;;5032515;28;20033;-54
2022/05/30 02:58:16;;;;;;;11.38;3.00;;;;;;;;;;5034035;28;20386;-52
2022/05/30 03:00:41;;;;;;;6.68;2.58;;;;;;;;;;5032271;28;20030;-55
2022/05/30 03:03:07;;;;;;;10.70;3.03;;;;;;;;;;5049442;28;20113;-52
2022/05/30 03:05:32;;;;;;;8.90;2.72;;;;;;;;;;5024805;28;20038;-56
2022/05/30 03:07:59;;;;;;;9.15;2.78;;;;;;;;;;5028983;28;20029;-55
2022/05/30 03:10:25;;;;;;;8.07;2.65;;;;;;;;;;5030115;28;21291;-50
2022/05/30 03:12:50;;;;;;;10.20;2.90;;;;;;;;;;5031436;28;20041;-52
2022/05/30 03:15:15;;;;;;;7.53;2.70;;;;;;;;;;5030360;28;20355;-55
2022/05/30 03:17:41;;;;;;;12.23;3.00;;;;;;;;;;5033003;28;20510;-50
2022/05/30 03:20:07;;;;;;;8.15;2.80;;;;;;;;;;5031795;28;20033;-49
2022/05/30 03:22:33;;;;;;;7.50;2.70;;;;;;;;;;5033067;28;20033;-52
2022/05/30 03:24:58;;;;;;;8.88;2.90;;;;;;;;;;5032419;28;20064;-48
2022/05/30 03:27:23;;;;;;;7.18;2.60;;;;;;;;;;5032768;28;20052;-49
2022/05/30 03:29:57;;;;;;;10.70;2.67;;;;;;;;;;5032489;28;20044;-50
2022/05/30 03:32:23;;;;;;;9.52;2.72;;;;;;;;;;5032551;28;20389;-49
2022/05/30 03:34:48;;;;;;;7.75;2.15;;;;;;;;;;5046509;28;20033;-50
2022/05/30 03:37:13;;;;;;;10.48;2.53;;;;;;;;;;5033206;28;20030;-55
2022/05/30 03:39:39;;;;;;;11.50;3.35;;;;;;;;;;5031924;28;20484;-53
2022/05/30 03:42:05;;;;;;;11.43;2.80;;;;;;;;;;5032491;28;20028;-50
2022/05/30 03:44:30;;;;;;;10.40;2.92;;;;;;;;;;5031519;28;20044;-54
2022/05/30 03:46:55;;;;;;;7.78;2.70;;;;;;;;;;5032984;28;20029;-54
2022/05/30 03:49:21;;;;;;;10.65;2.53;;;;;;;;;;5031804;28;20029;-59
2022/05/30 03:51:46;;;;;;;9.90;2.60;;;;;;;;;;5033001;28;20056;-49
2022/05/30 03:54:11;;;;;;;7.53;2.60;;;;;;;;;;5031926;28;20056;-52
2022/05/30 03:56:37;;;;;;;11.77;3.60;;;;;;;;;;5032218;28;20394;-55
2022/05/30 03:59:02;;;;;;;13.02;3.35;;;;;;;;;;5031753;28;20044;-54
2022/05/30 04:01:28;;;;;;;9.00;2.90;;;;;;;;;;5028236;28;20030;-56
2022/05/30 04:03:53;;;;;;;10.00;2.65;;;;;;;;;;5023927;28;20040;-55
2022/05/30 04:06:18;;;;;;;9.02;2.60;;;;;;;;;;5031576;28;20033;-53
2022/05/30 04:08:44;;;;;;;11.45;2.80;;;;;;;;;;5030551;28;20029;-52
2022/05/30 04:11:09;;;;;;;10.38;2.85;;;;;;;;;;5032680;28;20029;-51
2022/05/30 04:13:34;;;;;;;12.07;3.00;;;;;;;;;;5030861;28;20478;-54
2022/05/30 04:16:11;;;;;;;7.32;2.53;;;;;;;;;;5014015;28;20037;-55
2022/05/30 04:18:37;;;;;;;8.80;2.45;;;;;;;;;;5030645;28;20037;-55
2022/05/30 04:21:06;;;;;;;8.32;2.50;;;;;;;;;;5032363;28;20034;-53
2022/05/30 04:23:31;;;;;;;9.27;2.63;;;;;;;;;;5030424;28;20056;-57
2022/05/30 04:25:56;;;;;;;8.55;2.88;;;;;;;;;;5032063;28;20037;-54
2022/05/30 04:28:22;;;;;;;8.55;2.58;;;;;;;;;;5029853;28;20053;-50
2022/05/30 04:30:47;;;;;;;6.47;2.33;;;;;;;;;;5030615;28;20033;-55
2022/05/30 04:33:12;;;;;;;8.32;2.55;;;;;;;;;;5025363;28;20033;-54
2022/05/30 04:35:38;;;;;;;9.07;2.50;;;;;;;;;;5031071;28;20030;-53
2022/05/30 04:38:03;;;;;;;9.40;2.50;;;;;;;;;;5030565;28;20069;-50
2022/05/30 04:40:29;;;;;;;7.55;2.40;;;;;;;;;;5031764;28;20080;-52
2022/05/30 04:42:57;;;;;;;11.65;3.20;;;;;;;;;;5030611;28;20029;-49
2022/05/30 04:45:22;;;;;;;10.48;2.50;;;;;;;;;;5031273;28;20076;-50
2022/05/30 04:47:48;;;;;;;13.30;2.97;;;;;;;;;;5030852;28;20065;-51
2022/05/30 04:50:16;;;;;;;7.05;2.25;;;;;;;;;;5032459;28;20049;-54
2022/05/30 04:52:46;;;;;;;8.57;2.25;;;;;;;;;;5030400;28;20052;-51
2022/05/30 04:55:13;;;;;;;9.95;2.65;;;;;;;;;;5029564;28;20072;-52
2022/05/30 04:57:44;;;;;;;9.82;2.83;;;;;;;;;;5030150;28;20029;-55
2022/05/30 05:00:12;;;;;;;10.05;2.58;;;;;;;;;;5029305;28;20037;-54
2022/05/30 05:02:37;;;;;;;10.68;2.60;;;;;;;;;;5029824;28;20056;-55
2022/05/30 05:05:04;;;;;;;9.05;2.50;;;;;;;;;;5031125;28;20478;-56
2022/05/30 05:07:39;;;;;;;9.80;2.50;;;;;;;;;;5029972;28;20033;-55
2022/05/30 05:10:33;;;;;;;11.38;2.55;;;;;;;;;;5031242;28;20032;-54
2022/05/30 05:12:59;;;;;;;11.65;2.58;;;;;;;;;;5029487;28;20029;-55
2022/05/30 05:15:24;;;;;;;5.25;2.17;;;;;;;;;;5030764;28;20129;-51
2022/05/30 05:17:50;;;;;;;9.38;2.60;;;;;;;;;;5029713;28;20481;-52
2022/05/30 05:20:15;;;;;;;10.35;2.80;;;;;;;;;;5030390;28;20393;-56
2022/05/30 05:22:40;;;;;;;10.27;2.70;;;;;;;;;;5029187;28;20033;-61
2022/05/30 05:25:07;;;;;;;9.65;2.13;;;;;;;;;;5036810;28;20497;-61
2022/05/30 05:27:32;;;;;;;14.13;2.67;;;;;;;;;;5029737;28;20486;-62
2022/05/30 05:29:57;;;;;;;13.73;2.50;;;;;;;;;;5020616;28;20041;-58
2022/05/30 05:32:23;;;;;;;8.00;2.38;;;;;;;;;;5029537;28;20033;-63
2022/05/30 05:34:50;;;;;;;10.15;2.88;;;;;;;;;;5029867;28;20040;-60
2022/05/30 05:37:17;;;;;;;7.78;2.30;;;;;;;;;;5028861;28;20040;-60
2022/05/30 05:39:43;;;;;;;10.48;2.50;;;;;;;;;;5030318;28;20542;-61
2022/05/30 05:42:08;;;;;;;7.45;2.20;;;;;;;;;;5031348;28;20512;-61
2022/05/30 05:44:34;;;;;;;7.60;2.05;;;;;;;;;;5031267;28;20465;-59
2022/05/30 05:46:59;;;;;;;6.68;2.00;;;;;;;;;;5031557;28;20057;-60
2022/05/30 05:49:25;;;;;;;6.35;1.85;;;;;;;;;;5013628;28;20029;-60
2022/05/30 05:51:57;;;;;;;5.55;1.90;;;;;;;;;;5030939;28;20557;-60
2022/05/30 05:54:23;;;;;;;9.38;2.08;;;;;;;;;;5031209;28;20409;-60
2022/05/30 05:56:49;;;;;;;6.60;1.80;;;;;;;;;;5036686;28;20466;-60
2022/05/30 05:59:15;;;;;;;7.70;1.95;;;;;;;;;;5041232;28;20029;-59
2022/05/30 06:01:40;;;;;;;5.82;1.80;;;;;;;;;;5027770;28;20037;-62
2022/05/30 06:04:07;;;;;;;7.88;2.10;;;;;;;;;;5030237;28;20041;-61
2022/05/30 06:06:33;;;;;;;10.00;2.20;;;;;;;;;;5030605;28;20440;-59
2022/05/30 06:09:01;;;;;;;8.43;2.10;;;;;;;;;;5032824;28;20029;-58
2022/05/30 06:11:27;;;;;;;7.40;2.00;;;;;;;;;;5034712;28;20463;-59
2022/05/30 06:13:54;;;;;;;6.82;2.10;;;;;;;;;;5032605;28;20045;-56
2022/05/30 06:16:22;;;;;;;8.57;2.10;;;;;;;;;;5034818;28;20037;-57
2022/05/30 06:18:49;;;;;;;7.90;1.90;;;;;;;;;;5031666;28;20190;-61
2022/05/30 06:21:15;;;;;;;5.70;1.80;;;;;;;;;;5027446;28;20032;-60
2022/05/30 06:23:44;;;;;;;8.05;2.53;;;;;;;;;;5031020;28;20139;-60
2022/05/30 06:26:10;;;;;;;6.45;2.22;;;;;;;;;;5031831;28;20037;-60
2022/05/30 06:28:37;;;;;;;5.97;2.13;;;;;;;;;;5032802;28;20033;-60
2022/05/30 06:31:10;;;;;;;8.32;2.05;;;;;;;;;;5030186;28;20033;-59
2022/05/30 06:33:36;;;;;;;8.10;1.90;;;;;;;;;;5028116;28;20386;-60
2022/05/30 06:36:04;;;;;;;10.38;1.90;;;;;;;;;;5033167;28;20063;-59
2022/05/30 06:38:29;;;;;;;9.50;2.10;;;;;;;;;;5030014;28;20036;-60
2022/05/30 06:40:55;;;;;;;6.75;1.90;;;;;;;;;;5029778;28;20034;-57
2022/05/30 06:43:20;;;;;;;8.68;2.00;;;;;;;;;;5032794;28;20104;-60
2022/05/30 06:45:47;;;;;;;7.70;1.90;;;;;;;;;;5032695;28;20040;-60
2022/05/30 06:48:13;;;;;;;8.00;2.10;;;;;;;;;;5031901;28;20037;-60
2022/05/30 06:50:39;;;;;;;5.57;1.60;;;;;;;;;;5032342;28;20033;-59
2022/05/30 06:53:06;;;;;;;5.43;1.90;;;;;;;;;;5029687;28;20112;-57
2022/05/30 06:55:32;;;;;;;9.27;2.42;;;;;;;;;;5032206;28;20441;-60
2022/05/30 06:58:13;;;;;;;6.03;1.60;;;;;;;;;;5028652;28;20033;-60
2022/05/30 07:00:38;;;;;;;8.20;1.90;;;;;;;;;;5013521;28;20029;-60
2022/05/30 07:03:04;;;;;;;6.25;1.90;;;;;;;;;;5025988;28;20041;-61
2022/05/30 07:05:30;;;;;;;6.95;1.88;;;;;;;;;;5028339;28;20478;-60
2022/05/30 07:07:58;;;;;;;5.55;1.75;;;;;;;;;;5030139;28;20075;-60
2022/05/30 07:10:26;;;;;;;6.20;1.55;;;;;;;;;;5032754;28;20030;-60
2022/05/30 07:12:52;;;;;;;6.97;1.70;;;;;;;;;;5014533;28;20026;-60
2022/05/30 07:15:18;;;;;;;6.80;1.52;;;;;;;;;;5015360;28;20036;-61
2022/05/30 07:17:43;;;;;;;6.50;1.95;;;;;;;;;;5030321;28;20042;-61
2022/05/30 07:20:09;;;;;;;5.25;1.98;;;;;;;;;;5032848;28;20045;-61
2022/05/30 07:22:35;;;;;;;6.45;1.70;;;;;;;;;;5031934;28;20121;-60
2022/05/30 07:25:00;;;;;;;6.78;2.05;;;;;;;;;;5032797;28;20136;-60
2022/05/30 07:27:26;;;;;;;9.75;2.25;;;;;;;;;;5032343;28;20497;-59
2022/05/30 07:29:51;;;;;;;8.23;2.22;;;;;;;;;;5024066;28;20037;-60
2022/05/30 07:32:17;;;;;;;11.27;2.63;;;;;;;;;;5013717;28;20034;-60
2022/05/30 07:34:43;;;;;;;5.75;2.30;;;;;;;;;;5025542;28;20038;-60
2022/05/30 07:37:09;;;;;;;6.28;2.50;;;;;;;;;;5032715;28;20095;-59
2022/05/30 07:39:38;;;;;;;5.13;2.17;;;;;;;;;;5029826;28;20463;-60
2022/05/30 07:42:05;;;;;;;6.18;2.35;;;;;;;;;;5047831;28;20482;-60
2022/05/30 07:44:31;;;;;;;4.82;2.45;;;;;;;;;;5029964;28;20041;-60
2022/05/30 07:46:56;;;;;;;6.55;2.50;;;;;;;;;;5030194;28;20037;-59
2022/05/30 07:49:22;;;;;;;8.45;2.83;;;;;;;;;;5020769;28;20026;-59
2022/05/30 07:51:47;;;;;;;5.60;2.30;;;;;;;;;;5030942;28;20065;-60
2022/05/30 07:54:13;;;;;;;8.57;2.45;;;;;;;;;;5031332;28;20068;-60
2022/05/30 07:56:39;;;;;;;5.32;1.83;;;;;;;;;;5032449;28;20371;-60
2022/05/30 07:59:04;;;;;;;9.98;2.55;;;;;;;;;;5004580;28;20029;-60
2022/05/30 08:01:29;;;;;;;6.72;2.60;;;;;;;;;;5031456;28;20474;-60
2022/05/30 08:03:55;;;;;;;7.28;3.00;;;;;;;;;;5028446;28;20037;-62
2022/05/30 08:06:24;;;;;;;6.07;2.38;;;;;;;;;;5033002;28;20041;-59
2022/05/30 08:08:49;;;;;;;9.60;3.20;;;;;;;;;;5030389;28;20498;-62
2022/05/30 08:11:16;;;;;;;4.95;2.40;;;;;;;;;;5028686;28;20116;-62
2022/05/30 08:13:45;;;;;;;6.03;2.78;;;;;;;;;;5041978;28;20489;-61
2022/05/30 08:16:12;;;;;;;7.07;3.05;;;;;;;;;;5033674;28;20037;-60
2022/05/30 08:18:38;;;;;;;7.57;2.60;;;;;;;;;;5013387;28;20053;-60
2022/05/30 08:21:04;;;;;;;5.65;2.67;;;;;;;;;;5031867;28;20500;-60
2022/05/30 08:23:30;;;;;;;4.47;2.22;;;;;;;;;;5047585;28;20025;-60
2022/05/30 08:25:56;;;;;;;4.15;2.42;;;;;;;;;;5030185;28;20404;-60
2022/05/30 08:28:24;;;;;;;5.95;2.50;;;;;;;;;;5030360;28;20033;-60
2022/05/30 08:30:50;;;;;;;9.07;2.65;;;;;;;;;;5027327;28;20394;-60
2022/05/30 08:33:18;;;;;;;7.43;2.60;;;;;;;;;;5012245;28;20116;-59
2022/05/30 08:35:47;;;;;;;3.83;1.95;;;;;;;;;;5029923;28;20061;-59
2022/05/30 08:38:25;;;;;;;5.85;2.70;;;;;;;;;;5030363;28;20071;-59
2022/05/30 08:43:37;;;;;;;6.13;2.00;;;;;;;;;;5030946;28;20405;-60
2022/05/30 08:46:14;;;;;;;3.85;1.90;;;;;;;;;;5030251;28;20045;-59
2022/05/30 08:48:41;;;;;;;3.72;1.83;;;;;;;;;;5027575;28;20051;-59
2022/05/30 08:51:22;;;;;;;5.43;2.03;;;;;;;;;;5025803;28;20026;-60
2022/05/30 08:54:33;;;;;;;5.60;2.00;;;;;;;;;;5011657;28;20037;-61
2022/05/30 08:57:03;;;;;;;6.07;1.80;;;;;;;;;;4983039;28;20042;-60
2022/05/30 08:59:51;;;;;;;3.13;1.55;;;;;;;;;;5008524;28;20125;-61
2022/05/30 09:02:31;;;;;;;4.10;1.48;;;;;;;;;;5024805;28;20474;-62
2022/05/30 09:05:17;;;;;;;4.50;1.80;;;;;;;;;;5025579;28;20044;-60
2022/05/30 09:07:49;;;;;;;8.05;1.80;;;;;;;;;;5027507;28;20053;-60
2022/05/30 09:10:35;;;;;;;6.07;2.00;;;;;;;;;;5029218;28;20029;-62
2022/05/30 09:13:18;;;;;;;5.68;1.83;;;;;;;;;;5030118;28;20029;-61
2022/05/30 09:15:49;;;;;;;3.72;1.60;;;;;;;;;;5026255;28;20044;-59
2022/05/30 09:21:30;;;;;;;4.75;1.60;;;;;;;;;;5012229;28;20045;-62
2022/05/30 09:23:56;;;;;;;5.95;1.60;;;;;;;;;;5029753;28;20033;-59
2022/05/30 09:26:28;;;;;;;7.40;1.58;;;;;;;;;;5029141;28;20052;-59
2022/05/30 09:28:59;;;;;;;4.05;1.77;;;;;;;;;;5030839;28;20337;-61
2022/05/30 09:32:07;;;;;;;5.05;1.40;;;;;;;;;;5027855;28;20041;-61
2022/05/30 09:34:47;;;;;;;3.13;1.50;;;;;;;;;;5022236;28;20062;-59
2022/05/30 09:37:23;;;;;;;3.45;1.33;;;;;;;;;;5015867;28;20091;-58
2022/05/30 09:39:49;;;;;;;3.90;1.30;;;;;;;;;;5021211;28;20116;-59
2022/05/30 09:42:27;;;;;;;2.78;1.27;;;;;;;;;;5032845;28;20430;-58
2022/05/30 09:45:18;;;;;;;3.70;1.20;;;;;;;;;;5034624;28;20037;-60
2022/05/30 09:48:29;;;;;;;3.97;1.17;;;;;;;;;;5009465;28;20404;-61
2022/05/30 09:50:57;;;;;;;4.82;1.35;;;;;;;;;;5025583;28;20060;-59
2022/05/30 09:53:43;;;;;;;3.00;1.30;;;;;;;;;;5033861;28;20112;-60
2022/05/30 09:56:13;;;;;;;2.60;1.30;;;;;;;;;;5034577;28;20112;-58
2022/05/30 09:58:42;;;;;;;2.45;1.10;;;;;;;;;;5032767;28;20034;-62
2022/05/30 10:01:07;;;;;;;4.13;1.30;;;;;;;;;;5031622;28;20045;-59
2022/05/30 10:03:35;;;;;;;4.05;1.25;;;;;;;;;;5034675;28;20040;-60
2022/05/30 10:06:18;;;;;;;3.57;1.20;;;;;;;;;;5031402;28;20041;-60
2022/05/30 10:08:44;;;;;;;4.13;1.20;;;;;;;;;;5018823;28;20552;-60
2022/05/30 10:11:25;;;;;;;3.50;1.20;;;;;;;;;;5015657;28;20030;-58
2022/05/30 10:13:53;;;;;;;;;;;;;;;;;;5032541;28;20469;-59
2022/05/30 10:16:29;;;;;;;2.95;1.35;;;;;;;;;;5034792;28;19956;-59
2022/05/30 10:18:56;;;;;;;2.38;1.10;;;;;;;;;;5032243;28;20113;-59
2022/05/30 10:28:17;;;;;;;2.03;1.17;;;;;;;;;;5019261;28;20117;-61
2022/05/30 10:31:14;;;;;;;3.15;1.40;;;;;;;;;;5020253;28;20472;-60
2022/05/30 10:33:55;;;;;;;2.80;1.20;;;;;;;;;;5009475;28;20116;-61
2022/05/30 10:36:33;;;;;;;2.55;1.17;;;;;;;;;;5033231;28;20041;-60
2022/05/30 10:39:16;;;;;;;4.57;1.20;;;;;;;;;;5032229;28;20040;-61
2022/05/30 10:42:00;;;;;;;2.42;1.00;;;;;;;;;;5031347;28;20034;-62
2022/05/30 10:44:30;;;;;;;2.58;1.50;;;;;;;;;;5021529;28;20112;-61
2022/05/30 10:47:18;;;;;;;4.80;1.70;;;;;;;;;;5032784;28;20033;-60
2022/05/30 10:49:55;;;;;;;3.05;1.52;;;;;;;;;;5031570;28;20075;-60
2022/05/30 10:52:37;;;;;;;4.25;1.50;;;;;;;;;;5031085;28;20095;-65
2022/05/30 10:55:10;;;;;;;3.92;1.60;;;;;;;;;;5022843;28;20092;-61
2022/05/30 10:57:55;;;;;;;4.25;1.50;;;;;;;;;;5032183;28;20040;-61
2022/05/30 11:00:25;;;;;;;3.55;1.60;;;;;;;;;;5033179;28;20047;-61
2022/05/30 11:03:12;;;;;;;3.92;1.35;;;;;;;;;;5015806;28;20030;-61
2022/05/30 11:05:46;;;;;;;3.92;1.90;;;;;;;;;;5026492;28;20053;-60
2022/05/30 11:08:24;;;;;;;4.35;1.45;;;;;;;;;;5023449;28;20166;-60
2022/05/30 11:10:59;;;;;;;3.90;1.52;;;;;;;;;;5026782;28;20033;-61
2022/05/30 11:13:30;;;;;;;5.38;1.67;;;;;;;;;;5011940;28;20529;-61
2022/05/30 11:16:04;;;;;;;5.65;1.60;;;;;;;;;;5030107;28;20135;-60
2022/05/30 11:18:35;;;;;;;3.40;1.40;;;;;;;;;;5013974;28;20463;-63
2022/05/30 11:21:16;;;;;;;6.85;1.40;;;;;;;;;;5032001;28;20539;-60
2022/05/30 11:23:43;;;;;;;3.00;1.30;;;;;;;;;;5013889;28;20373;-61
2022/05/30 11:26:40;;;;;;;2.72;1.40;;;;;;;;;;5031290;28;20437;-62
2022/05/30 11:29:23;;;;;;;3.78;1.20;;;;;;;;;;5031981;28;20040;-61
2022/05/30 11:31:54;;;;;;;1.70;1.23;;;;;;;;;;5027430;28;20510;-62
2022/05/30 11:34:34;;;;;;;4.07;1.30;;;;;;;;;;5022378;28;20467;-62
2022/05/30 11:37:17;;;;;;;1.98;1.10;;;;;;;;;;5025539;28;20224;-61
2022/05/30 11:40:01;;;;;;;5.10;1.40;;;;;;;;;;5029088;28;20419;-60
2022/05/30 11:42:49;;;;;;;3.53;1.30;;;;;;;;;;5018176;28;20025;-61
2022/05/30 11:45:14;;;;;;;5.15;1.40;;;;;;;;;;5030809;28;20037;-60
2022/05/30 11:47:42;;;;;;;1.40;1.10;;;;;;;;;;5030623;28;20033;-61
2022/05/30 11:50:56;;;;;;;3.03;1.10;;;;;;;;;;5026740;28;20026;-61
2022/05/30 11:53:30;;;;;;;2.53;1.00;;;;;;;;;;5006056;28;20392;-60
2022/05/30 11:56:24;;;;;;;2.35;1.30;;;;;;;;;;5029550;28;20091;-60
2022/05/30 11:58:58;;;;;;;2.15;1.00;;;;;;;;;;5031989;28;20044;-60
2022/05/30 12:01:27;;;;;;;2.83;0.93;;;;;;;;;;5027065;28;20438;-59
2022/05/30 12:04:13;;;;;;;2.22;1.17;;;;;;;;;;5027094;28;20466;-60
2022/05/30 12:06:58;;;;;;;4.57;1.20;;;;;;;;;;5032164;28;20033;-61
2022/05/30 12:09:35;;;;;;;2.65;1.02;;;;;;;;;;5030906;28;20037;-61
2022/05/30 12:12:25;;;;;;;3.22;1.30;;;;;;;;;;5031223;28;20263;-59
2022/05/30 12:15:03;;;;;;;3.65;1.10;;;;;;;;;;5029231;28;20044;-60
2022/05/30 12:23:58;;;;;;;4.68;1.30;;;;;;;;;;5026641;28;20072;-61
2022/05/30 12:26:46;;;;;;;4.43;1.23;;;;;;;;;;5032112;28;20036;-60
2022/05/30 12:29:44;;;;;;;1.92;1.02;;;;;;;;;;5030972;28;20045;-61
2022/05/30 12:32:23;;;;;;;4.13;1.10;;;;;;;;;;5009548;28;20037;-59
2022/05/30 12:34:57;;;;;;;2.00;1.08;;;;;;;;;;5028656;28;20044;-59
2022/05/30 12:37:47;;;;;;;3.22;1.30;;;;;;;;;;5012137;28;20467;-59
2022/05/30 12:40:24;;;;;;;3.47;1.30;;;;;;;;;;5023640;28;20141;-59
2022/05/30 12:43:32;;;;;;;4.68;1.20;;;;;;;;;;5028798;28;20030;-59
2022/05/30 12:45:58;;;;;;;3.75;1.38;;;;;;;;;;5030056;28;20033;-59
2022/05/30 12:48:33;;;;;;;1.95;1.20;;;;;;;;;;5028864;28;20503;-58
2022/05/30 12:51:07;;;;;;;2.47;1.20;;;;;;;;;;5025902;28;20128;-60
2022/05/30 12:53:54;;;;;;;4.38;1.40;;;;;;;;;;5037750;28;20053;-60
2022/05/30 12:56:38;;;;;;;1.88;1.10;;;;;;;;;;5026527;28;20033;-58
2022/05/30 12:59:03;;;;;;;1.88;0.98;;;;;;;;;;5028810;28;20698;-60
2022/05/30 13:01:44;;;;;;;2.72;1.00;;;;;;;;;;5029459;28;20029;-60
2022/05/30 13:04:15;;;;;;;2.72;1.17;;;;;;;;;;5030657;28;20029;-60
2022/05/30 13:07:01;;;;;;;2.22;1.05;;;;;;;;;;5030372;28;20071;-61
2022/05/30 13:09:35;;;;;;;3.92;1.10;;;;;;;;;;5045719;28;20041;-60
2022/05/30 13:12:10;;;;;;;2.30;1.10;;;;;;;;;;5025285;28;20488;-60
2022/05/30 13:14:49;;;;;;;1.05;0.85;;;;;;;;;;5012119;28;20034;-61
2022/05/30 13:17:30;;;;;;;2.03;0.90;;;;;;;;;;5033333;28;20509;-61
2022/05/30 13:19:58;;;;;;;14.07;1.88;;;;;;;;;;5034261;28;20441;-61
2022/05/30 13:22:38;;;;;;;2.20;1.02;;;;;;;;;;5031588;28;20040;-60
2022/05/30 13:25:07;;;;;;;1.90;0.93;;;;;;;;;;5023478;28;20546;-62
2022/05/30 13:27:32;;;;;;;2.00;1.00;;;;;;;;;;5019117;28;20068;-62
2022/05/30 13:30:10;;;;;;;2.72;1.00;;;;;;;;;;5033603;28;20411;-62
2022/05/30 13:32:35;;;;;;;2.03;1.10;;;;;;;;;;5033481;28;20029;-61
2022/05/30 13:35:06;;;;;;;1.88;0.90;;;;;;;;;;5032787;28;20094;-60
2022/05/30 13:37:34;;;;;;;4.53;1.37;;;;;;;;;;5033852;28;20045;-61
2022/05/30 13:40:03;;;;;;;1.27;0.70;;;;;;;;;;5032667;28;20730;-61
2022/05/30 13:42:45;;;;;;;3.25;1.00;;;;;;;;;;5015864;28;20470;-60
2022/05/30 13:45:11;;;;;;;2.25;1.02;;;;;;;;;;5032183;28;20079;-61
2022/05/30 13:47:40;;;;;;;3.13;1.10;;;;;;;;;;5034195;28;20033;-60
2022/05/30 13:50:06;;;;;;;2.80;1.10;;;;;;;;;;5031968;28;20040;-58
2022/05/30 13:52:37;;;;;;;2.15;1.02;;;;;;;;;;5033072;28;20033;-58
2022/05/30 13:55:24;;;;;;;2.95;0.75;;;;;;;;;;5032894;28;20183;-61
2022/05/30 13:57:50;;;;;;;1.75;1.13;;;;;;;;;;5027801;28;20076;-61
2022/05/30 14:00:23;;;;;;;4.68;1.00;;;;;;;;;;5022733;28;20025;-61
2022/05/30 14:02:49;;;;;;;2.42;1.20;;;;;;;;;;5028869;28;20030;-60
2022/05/30 14:05:31;;;;;;;16.00;2.08;;;;;;;;;;5023387;28;20029;-61
2022/05/30 14:07:57;;;;;;;2.28;1.10;;;;;;;;;;5028937;28;20026;-60
2022/05/30 14:10:25;;;;;;;3.88;1.20;;;;;;;;;;5024991;28;20029;-61
2022/05/30 14:12:51;;;;;;;3.08;1.13;;;;;;;;;;5031220;28;20101;-60
2022/05/30 14:15:24;;;;;;;3.40;1.27;;;;;;;;;;5032089;28;20112;-61
2022/05/30 14:17:51;;;;;;;1.75;1.15;;;;;;;;;;5031805;28;20449;-58
2022/05/30 14:20:19;;;;;;;3.72;1.40;;;;;;;;;;5032392;28;20141;-61
2022/05/30 14:22:52;;;;;;;3.15;1.58;;;;;;;;;;5033162;28;20033;-61
2022/05/30 14:25:27;;;;;;;3.90;1.20;;;;;;;;;;5031184;28;20034;-60
2022/05/30 14:27:53;;;;;;;3.08;1.30;;;;;;;;;;5031603;28;20064;-58
2022/05/30 14:30:39;;;;;;;8.50;1.45;;;;;;;;;;5032138;28;20052;-59
2022/05/30 14:33:24;;;;;;;3.75;1.20;;;;;;;;;;5026727;28;20124;-59
2022/05/30 14:35:51;;;;;;;3.08;1.38;;;;;;;;;;5030768;28;20037;-59
2022/05/30 14:38:28;;;;;;;3.30;1.10;;;;;;;;;;5033240;28;20115;-59
2022/05/30 14:41:00;;;;;;;2.88;1.10;;;;;;;;;;5031134;28;20056;-60
2022/05/30 14:43:44;;;;;;;3.08;1.20;;;;;;;;;;5031626;28;20112;-61
2022/05/30 14:46:12;;;;;;;2.88;1.13;;;;;;;;;;5033314;28;20034;-61
2022/05/30 14:48:45;;;;;;;5.85;1.10;;;;;;;;;;5031837;28;20051;-59
2022/05/30 14:51:22;;;;;;;2.60;1.40;;;;;;;;;;5033884;28;20021;-59
2022/05/30 14:53:50;;;;;;;2.47;1.15;;;;;;;;;;5031493;28;20087;-59
2022/05/30 14:56:22;;;;;;;3.63;1.00;;;;;;;;;;5031960;28;20033;-58
2022/05/30 14:58:57;;;;;;;4.13;1.27;;;;;;;;;;5031709;28;20037;-59
2022/05/30 15:01:23;;;;;;;2.35;1.25;;;;;;;;;;5031127;28;20041;-58
2022/05/30 15:06:53;;;;;;;4.18;1.30;;;;;;;;;;5037848;28;20047;-58
2022/05/30 15:09:21;;;;;;;2.55;1.38;;;;;;;;;;5034768;28;20458;-58
2022/05/30 15:11:47;;;;;;;1.70;1.00;;;;;;;;;;5030751;28;20044;-59
2022/05/30 15:14:19;;;;;;;4.22;1.20;;;;;;;;;;5028761;28;20033;-58
2022/05/30 15:16:45;;;;;;;3.33;1.10;;;;;;;;;;5012149;28;20033;-59
2022/05/30 15:19:11;;;;;;;3.63;1.45;;;;;;;;;;5013357;28;20041;-56
2022/05/30 15:21:47;;;;;;;3.65;1.30;;;;;;;;;;5021008;28;20029;-56
2022/05/30 15:24:31;;;;;;;1.98;1.00;;;;;;;;;;5032334;28;20505;-59
2022/05/30 15:26:57;;;;;;;2.67;1.15;;;;;;;;;;5032319;28;20040;-55
2022/05/30 15:29:23;;;;;;;1.85;1.15;;;;;;;;;;5033349;28;20493;-55
2022/05/30 15:31:50;;;;;;;2.38;1.40;;;;;;;;;;5026094;28;20037;-51
2022/05/30 15:34:16;;;;;;;3.22;1.70;;;;;;;;;;5011603;28;20421;-56
2022/05/30 15:36:44;;;;;;;3.70;1.70;;;;;;;;;;5030831;28;20465;-56